sensor_id;sensor_type;location;lat;lon;timestamp;temperature;humidity
54898;DHT22;40800;52.704;6.398;2024-01-06T00:02:22;7.40;99.90
54898;DHT22;40800;52.704;6.398;2024-01-06T00:04:47;8.00;99.90
54898;DHT22;40800;52.704;6.398;2024-01-06T00:07:13;8.00;99.90
54898;DHT22;40800;52.704;6.398;2024-01-06T00:09:39;7.40;99.90
54898;DHT22;40800;52.704;6.398;2024-01-06T00:12:05;7.50;99.90
54898;DHT22;40800;52.704;6.398;2024-01-06T00:14:31;7.40;99.90
54898;DHT22;40800;52.704;6.398;2024-01-06T00:16:57;7.40;99.90
54898;DHT22;40800;52.704;6.398;2024-01-06T00:19:22;7.80;99.90
54898;DHT22;40800;52.704;6.398;2024-01-06T00:21:48;7.70;99.90
54898;DHT22;40800;52.704;6.398;2024-01-06T00:24:13;7.40;99.90
54898;DHT22;40800;52.704;6.398;2024-01-06T00:26:39;7.30;99.90
54898;DHT22;40800;52.704;6.398;2024-01-06T00:29:04;7.80;99.90
54898;DHT22;40800;52.704;6.398;2024-01-06T00:31:30;7.70;99.90
54898;DHT22;40800;52.704;6.398;2024-01-06T00:33:55;7.70;99.90
54898;DHT22;40800;52.704;6.398;2024-01-06T00:36:21;7.50;99.90
54898;DHT22;40800;52.704;6.398;2024-01-06T00:38:46;7.70;99.90
54898;DHT22;40800;52.704;6.398;2024-01-06T00:41:13;7.30;99.90
54898;DHT22;40800;52.704;6.398;2024-01-06T00:43:39;7.70;99.90
54898;DHT22;40800;52.704;6.398;2024-01-06T00:46:04;7.20;99.90
54898;DHT22;40800;52.704;6.398;2024-01-06T00:48:30;7.80;99.90
54898;DHT22;40800;52.704;6.398;2024-01-06T00:50:55;7.20;99.90
54898;DHT22;40800;52.704;6.398;2024-01-06T00:53:21;7.30;99.90
54898;DHT22;40800;52.704;6.398;2024-01-06T00:55:47;7.70;99.90
54898;DHT22;40800;52.704;6.398;2024-01-06T00:58:13;7.20;99.90
54898;DHT22;40800;52.704;6.398;2024-01-06T01:00:38;7.70;99.90
54898;DHT22;40800;52.704;6.398;2024-01-06T01:03:04;7.20;99.90
54898;DHT22;40800;52.704;6.398;2024-01-06T01:05:30;7.50;99.90
54898;DHT22;40800;52.704;6.398;2024-01-06T01:07:55;7.50;99.90
54898;DHT22;40800;52.704;6.398;2024-01-06T01:10:21;7.60;99.90
54898;DHT22;40800;52.704;6.398;2024-01-06T01:12:46;7.80;99.90
54898;DHT22;40800;52.704;6.398;2024-01-06T01:15:12;7.70;99.90
54898;DHT22;40800;52.704;6.398;2024-01-06T01:17:38;7.70;99.90
54898;DHT22;40800;52.704;6.398;2024-01-06T01:20:04;7.80;99.90
54898;DHT22;40800;52.704;6.398;2024-01-06T01:22:30;7.40;99.90
54898;DHT22;40800;52.704;6.398;2024-01-06T01:24:55;7.50;99.90
54898;DHT22;40800;52.704;6.398;2024-01-06T01:27:21;7.50;99.90
54898;DHT22;40800;52.704;6.398;2024-01-06T01:29:47;7.40;99.90
54898;DHT22;40800;52.704;6.398;2024-01-06T01:32:13;7.10;99.90
54898;DHT22;40800;52.704;6.398;2024-01-06T01:34:39;7.20;99.90
54898;DHT22;40800;52.704;6.398;2024-01-06T01:37:04;7.20;99.90
54898;DHT22;40800;52.704;6.398;2024-01-06T01:39:30;7.60;99.90
54898;DHT22;40800;52.704;6.398;2024-01-06T01:41:55;7.10;99.90
54898;DHT22;40800;52.704;6.398;2024-01-06T01:44:21;7.00;99.90
54898;DHT22;40800;52.704;6.398;2024-01-06T01:46:47;7.20;99.90
54898;DHT22;40800;52.704;6.398;2024-01-06T01:49:13;7.00;99.90
54898;DHT22;40800;52.704;6.398;2024-01-06T01:51:39;7.40;99.90
54898;DHT22;40800;52.704;6.398;2024-01-06T01:54:06;7.40;99.90
54898;DHT22;40800;52.704;6.398;2024-01-06T01:56:32;7.00;99.90
54898;DHT22;40800;52.704;6.398;2024-01-06T01:59:08;6.90;99.90
54898;DHT22;40800;52.704;6.398;2024-01-06T02:01:34;7.40;99.90
54898;DHT22;40800;52.704;6.398;2024-01-06T02:04:01;7.20;99.90
54898;DHT22;40800;52.704;6.398;2024-01-06T02:06:27;6.90;99.90
54898;DHT22;40800;52.704;6.398;2024-01-06T02:08:53;6.90;99.90
54898;DHT22;40800;52.704;6.398;2024-01-06T02:11:19;7.00;99.90
54898;DHT22;40800;52.704;6.398;2024-01-06T02:13:44;7.00;99.90
54898;DHT22;40800;52.704;6.398;2024-01-06T02:16:10;7.20;99.90
54898;DHT22;40800;52.704;6.398;2024-01-06T02:18:35;6.80;99.90
54898;DHT22;40800;52.704;6.398;2024-01-06T02:21:02;7.20;99.90
54898;DHT22;40800;52.704;6.398;2024-01-06T02:23:29;7.20;99.90
54898;DHT22;40800;52.704;6.398;2024-01-06T02:25:55;6.80;99.90
54898;DHT22;40800;52.704;6.398;2024-01-06T02:28:20;6.90;99.90
54898;DHT22;40800;52.704;6.398;2024-01-06T02:30:46;7.20;99.90
54898;DHT22;40800;52.704;6.398;2024-01-06T02:33:12;7.20;99.90
54898;DHT22;40800;52.704;6.398;2024-01-06T02:35:38;6.80;99.90
54898;DHT22;40800;52.704;6.398;2024-01-06T02:38:05;6.70;99.90
54898;DHT22;40800;52.704;6.398;2024-01-06T02:40:31;6.60;99.90
54898;DHT22;40800;52.704;6.398;2024-01-06T02:42:58;6.90;99.90
54898;DHT22;40800;52.704;6.398;2024-01-06T02:45:23;7.10;99.90
54898;DHT22;40800;52.704;6.398;2024-01-06T02:47:49;6.80;99.90
54898;DHT22;40800;52.704;6.398;2024-01-06T02:50:14;7.10;99.90
54898;DHT22;40800;52.704;6.398;2024-01-06T02:52:40;6.60;99.90
54898;DHT22;40800;52.704;6.398;2024-01-06T02:55:06;6.70;99.90
54898;DHT22;40800;52.704;6.398;2024-01-06T02:57:31;7.10;99.90
54898;DHT22;40800;52.704;6.398;2024-01-06T02:59:57;6.90;99.90
54898;DHT22;40800;52.704;6.398;2024-01-06T03:02:23;7.00;99.90
54898;DHT22;40800;52.704;6.398;2024-01-06T03:04:49;6.80;99.90
54898;DHT22;40800;52.704;6.398;2024-01-06T03:07:15;6.80;99.90
54898;DHT22;40800;52.704;6.398;2024-01-06T03:09:40;6.70;99.90
54898;DHT22;40800;52.704;6.398;2024-01-06T03:12:06;7.00;99.90
54898;DHT22;40800;52.704;6.398;2024-01-06T03:14:34;7.00;99.90
54898;DHT22;40800;52.704;6.398;2024-01-06T03:17:00;6.90;99.90
54898;DHT22;40800;52.704;6.398;2024-01-06T03:19:26;6.80;99.90
54898;DHT22;40800;52.704;6.398;2024-01-06T03:21:53;7.00;99.90
54898;DHT22;40800;52.704;6.398;2024-01-06T03:24:19;7.00;99.90
54898;DHT22;40800;52.704;6.398;2024-01-06T03:26:45;6.60;99.90
54898;DHT22;40800;52.704;6.398;2024-01-06T03:29:10;6.50;99.90
54898;DHT22;40800;52.704;6.398;2024-01-06T03:31:37;7.10;99.90
54898;DHT22;40800;52.704;6.398;2024-01-06T03:34:02;6.60;99.90
54898;DHT22;40800;52.704;6.398;2024-01-06T03:36:28;6.60;99.90
54898;DHT22;40800;52.704;6.398;2024-01-06T03:38:53;6.50;99.90
54898;DHT22;40800;52.704;6.398;2024-01-06T03:41:19;6.50;99.90
54898;DHT22;40800;52.704;6.398;2024-01-06T03:43:45;7.00;99.90
54898;DHT22;40800;52.704;6.398;2024-01-06T03:46:10;6.60;99.90
54898;DHT22;40800;52.704;6.398;2024-01-06T03:48:36;7.00;99.90
54898;DHT22;40800;52.704;6.398;2024-01-06T03:51:02;6.60;99.90
54898;DHT22;40800;52.704;6.398;2024-01-06T03:53:28;7.00;99.90
54898;DHT22;40800;52.704;6.398;2024-01-06T03:55:53;6.90;99.90
54898;DHT22;40800;52.704;6.398;2024-01-06T03:58:19;6.50;99.90
54898;DHT22;40800;52.704;6.398;2024-01-06T04:00:44;6.90;99.90
54898;DHT22;40800;52.704;6.398;2024-01-06T04:03:10;6.80;99.90
54898;DHT22;40800;52.704;6.398;2024-01-06T04:05:35;6.50;99.90
54898;DHT22;40800;52.704;6.398;2024-01-06T04:08:01;6.40;99.90
54898;DHT22;40800;52.704;6.398;2024-01-06T04:10:26;6.60;99.90
54898;DHT22;40800;52.704;6.398;2024-01-06T04:12:52;6.70;99.90
54898;DHT22;40800;52.704;6.398;2024-01-06T04:15:18;6.40;99.90
54898;DHT22;40800;52.704;6.398;2024-01-06T04:17:44;6.70;99.90
54898;DHT22;40800;52.704;6.398;2024-01-06T04:20:10;6.30;99.90
54898;DHT22;40800;52.704;6.398;2024-01-06T04:22:38;6.60;99.90
54898;DHT22;40800;52.704;6.398;2024-01-06T04:25:04;6.70;99.90
54898;DHT22;40800;52.704;6.398;2024-01-06T04:27:29;6.40;99.90
54898;DHT22;40800;52.704;6.398;2024-01-06T04:29:56;6.70;99.90
54898;DHT22;40800;52.704;6.398;2024-01-06T04:32:22;6.70;99.90
54898;DHT22;40800;52.704;6.398;2024-01-06T04:34:47;6.30;99.90
54898;DHT22;40800;52.704;6.398;2024-01-06T04:37:13;6.50;99.90
54898;DHT22;40800;52.704;6.398;2024-01-06T04:39:38;6.30;99.90
54898;DHT22;40800;52.704;6.398;2024-01-06T04:42:04;6.40;99.90
54898;DHT22;40800;52.704;6.398;2024-01-06T04:44:30;6.40;99.90
54898;DHT22;40800;52.704;6.398;2024-01-06T04:46:56;6.40;99.90
54898;DHT22;40800;52.704;6.398;2024-01-06T04:49:21;6.60;99.90
54898;DHT22;40800;52.704;6.398;2024-01-06T04:51:48;6.50;99.90
54898;DHT22;40800;52.704;6.398;2024-01-06T04:54:13;6.50;99.90
54898;DHT22;40800;52.704;6.398;2024-01-06T04:56:39;6.40;99.90
54898;DHT22;40800;52.704;6.398;2024-01-06T04:59:05;6.40;99.90
54898;DHT22;40800;52.704;6.398;2024-01-06T05:01:31;6.20;99.90
54898;DHT22;40800;52.704;6.398;2024-01-06T05:03:56;6.20;99.90
54898;DHT22;40800;52.704;6.398;2024-01-06T05:06:23;6.20;99.90
54898;DHT22;40800;52.704;6.398;2024-01-06T05:08:48;6.20;99.90
54898;DHT22;40800;52.704;6.398;2024-01-06T05:11:14;6.20;99.90
54898;DHT22;40800;52.704;6.398;2024-01-06T05:13:40;6.20;99.90
54898;DHT22;40800;52.704;6.398;2024-01-06T05:16:07;6.10;99.90
54898;DHT22;40800;52.704;6.398;2024-01-06T05:18:32;6.10;99.90
54898;DHT22;40800;52.704;6.398;2024-01-06T05:20:58;6.10;99.90
54898;DHT22;40800;52.704;6.398;2024-01-06T05:23:24;6.30;99.90
54898;DHT22;40800;52.704;6.398;2024-01-06T05:25:49;6.30;99.90
54898;DHT22;40800;52.704;6.398;2024-01-06T05:28:15;6.10;99.90
54898;DHT22;40800;52.704;6.398;2024-01-06T05:30:40;6.00;99.90
54898;DHT22;40800;52.704;6.398;2024-01-06T05:33:10;6.30;99.90
54898;DHT22;40800;52.704;6.398;2024-01-06T05:35:38;6.10;99.90
54898;DHT22;40800;52.704;6.398;2024-01-06T05:38:04;6.10;99.90
54898;DHT22;40800;52.704;6.398;2024-01-06T05:40:29;6.20;99.90
54898;DHT22;40800;52.704;6.398;2024-01-06T05:42:55;6.40;99.90
54898;DHT22;40800;52.704;6.398;2024-01-06T05:45:22;6.10;99.90
54898;DHT22;40800;52.704;6.398;2024-01-06T05:47:48;6.40;99.90
54898;DHT22;40800;52.704;6.398;2024-01-06T05:50:15;6.40;99.90
54898;DHT22;40800;52.704;6.398;2024-01-06T05:52:41;6.00;99.90
54898;DHT22;40800;52.704;6.398;2024-01-06T05:55:07;6.00;99.90
54898;DHT22;40800;52.704;6.398;2024-01-06T05:57:32;6.00;99.90
54898;DHT22;40800;52.704;6.398;2024-01-06T05:59:59;6.00;99.90
54898;DHT22;40800;52.704;6.398;2024-01-06T06:02:25;6.30;99.90
54898;DHT22;40800;52.704;6.398;2024-01-06T06:04:51;6.00;99.90
54898;DHT22;40800;52.704;6.398;2024-01-06T06:07:17;6.30;99.90
54898;DHT22;40800;52.704;6.398;2024-01-06T06:09:43;6.00;99.90
54898;DHT22;40800;52.704;6.398;2024-01-06T06:12:09;6.20;99.90
54898;DHT22;40800;52.704;6.398;2024-01-06T06:14:34;6.00;99.90
54898;DHT22;40800;52.704;6.398;2024-01-06T06:17:00;6.30;99.90
54898;DHT22;40800;52.704;6.398;2024-01-06T06:19:25;6.30;99.90
54898;DHT22;40800;52.704;6.398;2024-01-06T06:21:51;6.30;99.90
54898;DHT22;40800;52.704;6.398;2024-01-06T06:24:16;6.00;99.90
54898;DHT22;40800;52.704;6.398;2024-01-06T06:26:42;6.00;99.90
54898;DHT22;40800;52.704;6.398;2024-01-06T06:29:07;6.30;99.90
54898;DHT22;40800;52.704;6.398;2024-01-06T06:31:33;6.20;99.90
54898;DHT22;40800;52.704;6.398;2024-01-06T06:33:59;6.00;99.90
54898;DHT22;40800;52.704;6.398;2024-01-06T06:36:24;6.10;99.90
54898;DHT22;40800;52.704;6.398;2024-01-06T06:38:50;6.10;99.90
54898;DHT22;40800;52.704;6.398;2024-01-06T06:41:16;5.90;99.90
54898;DHT22;40800;52.704;6.398;2024-01-06T06:43:41;6.20;99.90
54898;DHT22;40800;52.704;6.398;2024-01-06T06:46:08;6.30;99.90
54898;DHT22;40800;52.704;6.398;2024-01-06T06:48:33;5.90;99.90
54898;DHT22;40800;52.704;6.398;2024-01-06T06:51:01;6.10;99.90
54898;DHT22;40800;52.704;6.398;2024-01-06T06:53:26;6.20;99.90
54898;DHT22;40800;52.704;6.398;2024-01-06T06:55:52;6.30;99.90
54898;DHT22;40800;52.704;6.398;2024-01-06T06:58:17;6.20;99.90
54898;DHT22;40800;52.704;6.398;2024-01-06T07:00:43;5.80;99.90
54898;DHT22;40800;52.704;6.398;2024-01-06T07:03:09;6.20;99.90
54898;DHT22;40800;52.704;6.398;2024-01-06T07:05:35;6.10;99.90
54898;DHT22;40800;52.704;6.398;2024-01-06T07:08:01;5.80;99.90
54898;DHT22;40800;52.704;6.398;2024-01-06T07:10:27;6.20;99.90
54898;DHT22;40800;52.704;6.398;2024-01-06T07:12:52;6.20;99.90
54898;DHT22;40800;52.704;6.398;2024-01-06T07:15:18;5.70;99.90
54898;DHT22;40800;52.704;6.398;2024-01-06T07:17:44;5.70;99.90
54898;DHT22;40800;52.704;6.398;2024-01-06T07:20:10;6.10;99.90
54898;DHT22;40800;52.704;6.398;2024-01-06T07:22:36;6.10;99.90
54898;DHT22;40800;52.704;6.398;2024-01-06T07:25:02;5.70;99.90
54898;DHT22;40800;52.704;6.398;2024-01-06T07:27:27;5.80;99.90
54898;DHT22;40800;52.704;6.398;2024-01-06T07:29:53;6.10;99.90
54898;DHT22;40800;52.704;6.398;2024-01-06T07:32:21;5.80;99.90
54898;DHT22;40800;52.704;6.398;2024-01-06T07:34:46;6.10;99.90
54898;DHT22;40800;52.704;6.398;2024-01-06T07:37:12;6.00;99.90
54898;DHT22;40800;52.704;6.398;2024-01-06T07:39:38;5.90;99.90
54898;DHT22;40800;52.704;6.398;2024-01-06T07:42:03;5.70;99.90
54898;DHT22;40800;52.704;6.398;2024-01-06T07:44:29;6.10;99.90
54898;DHT22;40800;52.704;6.398;2024-01-06T07:46:55;6.10;99.90
54898;DHT22;40800;52.704;6.398;2024-01-06T07:49:20;6.10;99.90
54898;DHT22;40800;52.704;6.398;2024-01-06T07:51:46;6.10;99.90
54898;DHT22;40800;52.704;6.398;2024-01-06T07:54:11;6.00;99.90
54898;DHT22;40800;52.704;6.398;2024-01-06T07:56:37;5.70;99.90
54898;DHT22;40800;52.704;6.398;2024-01-06T07:59:03;5.70;99.90
54898;DHT22;40800;52.704;6.398;2024-01-06T08:01:30;5.90;99.90
54898;DHT22;40800;52.704;6.398;2024-01-06T08:03:55;6.00;99.90
54898;DHT22;40800;52.704;6.398;2024-01-06T08:06:21;6.00;99.90
54898;DHT22;40800;52.704;6.398;2024-01-06T08:08:47;5.70;99.90
54898;DHT22;40800;52.704;6.398;2024-01-06T08:11:12;5.60;99.90
54898;DHT22;40800;52.704;6.398;2024-01-06T08:13:38;5.90;99.90
54898;DHT22;40800;52.704;6.398;2024-01-06T08:16:04;5.90;99.90
54898;DHT22;40800;52.704;6.398;2024-01-06T08:18:31;5.80;99.90
54898;DHT22;40800;52.704;6.398;2024-01-06T08:20:56;5.90;99.90
54898;DHT22;40800;52.704;6.398;2024-01-06T08:23:22;5.70;99.90
54898;DHT22;40800;52.704;6.398;2024-01-06T08:25:48;5.50;99.90
54898;DHT22;40800;52.704;6.398;2024-01-06T08:28:13;5.50;99.90
54898;DHT22;40800;52.704;6.398;2024-01-06T08:30:40;5.80;99.90
54898;DHT22;40800;52.704;6.398;2024-01-06T08:33:06;5.50;99.90
54898;DHT22;40800;52.704;6.398;2024-01-06T08:35:31;5.50;99.90
54898;DHT22;40800;52.704;6.398;2024-01-06T08:37:57;5.90;99.90
54898;DHT22;40800;52.704;6.398;2024-01-06T08:40:23;5.70;99.90
54898;DHT22;40800;52.704;6.398;2024-01-06T08:42:49;5.70;99.90
54898;DHT22;40800;52.704;6.398;2024-01-06T08:45:14;5.50;99.90
54898;DHT22;40800;52.704;6.398;2024-01-06T08:47:40;5.50;99.90
54898;DHT22;40800;52.704;6.398;2024-01-06T08:50:07;5.80;99.90
54898;DHT22;40800;52.704;6.398;2024-01-06T08:52:32;5.50;99.90
54898;DHT22;40800;52.704;6.398;2024-01-06T08:54:58;5.70;99.90
54898;DHT22;40800;52.704;6.398;2024-01-06T08:57:24;5.60;99.90
54898;DHT22;40800;52.704;6.398;2024-01-06T08:59:49;5.90;99.90
54898;DHT22;40800;52.704;6.398;2024-01-06T09:02:15;5.80;99.90
54898;DHT22;40800;52.704;6.398;2024-01-06T09:04:40;5.90;99.90
54898;DHT22;40800;52.704;6.398;2024-01-06T09:07:06;5.60;99.90
54898;DHT22;40800;52.704;6.398;2024-01-06T09:09:31;5.80;99.90
54898;DHT22;40800;52.704;6.398;2024-01-06T09:11:57;5.70;99.90
54898;DHT22;40800;52.704;6.398;2024-01-06T09:14:22;6.00;99.90
54898;DHT22;40800;52.704;6.398;2024-01-06T09:16:48;5.70;99.90
54898;DHT22;40800;52.704;6.398;2024-01-06T09:19:13;5.70;99.90
54898;DHT22;40800;52.704;6.398;2024-01-06T09:21:39;5.90;99.90
54898;DHT22;40800;52.704;6.398;2024-01-06T09:24:05;6.00;99.90
54898;DHT22;40800;52.704;6.398;2024-01-06T09:26:32;5.80;99.90
54898;DHT22;40800;52.704;6.398;2024-01-06T09:29:00;5.80;99.90
54898;DHT22;40800;52.704;6.398;2024-01-06T09:31:25;5.70;99.90
54898;DHT22;40800;52.704;6.398;2024-01-06T09:33:51;6.10;99.90
54898;DHT22;40800;52.704;6.398;2024-01-06T09:36:17;6.00;99.90
54898;DHT22;40800;52.704;6.398;2024-01-06T09:38:43;5.80;99.90
54898;DHT22;40800;52.704;6.398;2024-01-06T09:41:08;6.00;99.90
54898;DHT22;40800;52.704;6.398;2024-01-06T09:43:34;5.90;99.90
54898;DHT22;40800;52.704;6.398;2024-01-06T09:46:21;6.10;99.90
54898;DHT22;40800;52.704;6.398;2024-01-06T09:48:50;6.10;99.90
54898;DHT22;40800;52.704;6.398;2024-01-06T09:51:18;6.20;99.90
54898;DHT22;40800;52.704;6.398;2024-01-06T09:54:01;5.90;99.90
54898;DHT22;40800;52.704;6.398;2024-01-06T09:56:29;6.20;99.90
54898;DHT22;40800;52.704;6.398;2024-01-06T09:58:56;6.00;99.90
54898;DHT22;40800;52.704;6.398;2024-01-06T10:01:22;6.20;99.90
54898;DHT22;40800;52.704;6.398;2024-01-06T10:03:48;6.20;99.90
54898;DHT22;40800;52.704;6.398;2024-01-06T10:06:14;5.90;99.90
54898;DHT22;40800;52.704;6.398;2024-01-06T10:08:51;6.20;99.90
54898;DHT22;40800;52.704;6.398;2024-01-06T10:11:24;6.10;99.90
54898;DHT22;40800;52.704;6.398;2024-01-06T10:13:50;6.00;99.90
54898;DHT22;40800;52.704;6.398;2024-01-06T10:16:18;6.20;99.90
54898;DHT22;40800;52.704;6.398;2024-01-06T10:18:44;6.00;99.90
54898;DHT22;40800;52.704;6.398;2024-01-06T10:21:10;6.00;99.90
54898;DHT22;40800;52.704;6.398;2024-01-06T10:23:36;5.90;99.90
54898;DHT22;40800;52.704;6.398;2024-01-06T10:26:02;6.00;99.90
54898;DHT22;40800;52.704;6.398;2024-01-06T10:28:28;6.10;99.90
54898;DHT22;40800;52.704;6.398;2024-01-06T10:30:55;6.00;99.90
54898;DHT22;40800;52.704;6.398;2024-01-06T10:33:22;6.20;99.90
54898;DHT22;40800;52.704;6.398;2024-01-06T10:35:48;6.20;99.90
54898;DHT22;40800;52.704;6.398;2024-01-06T10:38:14;6.00;99.90
54898;DHT22;40800;52.704;6.398;2024-01-06T10:41:04;6.30;99.90
54898;DHT22;40800;52.704;6.398;2024-01-06T10:43:35;6.00;99.90
54898;DHT22;40800;52.704;6.398;2024-01-06T10:46:05;6.10;99.90
54898;DHT22;40800;52.704;6.398;2024-01-06T10:48:32;6.30;99.90
54898;DHT22;40800;52.704;6.398;2024-01-06T10:50:58;6.30;99.90
54898;DHT22;40800;52.704;6.398;2024-01-06T10:53:26;6.00;99.90
54898;DHT22;40800;52.704;6.398;2024-01-06T10:55:52;6.20;99.90
54898;DHT22;40800;52.704;6.398;2024-01-06T10:58:18;6.10;99.90
54898;DHT22;40800;52.704;6.398;2024-01-06T11:00:45;6.10;99.90
54898;DHT22;40800;52.704;6.398;2024-01-06T11:03:10;6.10;99.90
54898;DHT22;40800;52.704;6.398;2024-01-06T11:05:39;6.10;99.90
54898;DHT22;40800;52.704;6.398;2024-01-06T11:08:05;6.20;99.90
54898;DHT22;40800;52.704;6.398;2024-01-06T11:10:32;6.10;99.90
54898;DHT22;40800;52.704;6.398;2024-01-06T11:13:14;6.10;99.90
54898;DHT22;40800;52.704;6.398;2024-01-06T11:15:49;6.10;99.90
54898;DHT22;40800;52.704;6.398;2024-01-06T11:18:37;6.10;99.90
54898;DHT22;40800;52.704;6.398;2024-01-06T11:21:15;6.20;99.90
54898;DHT22;40800;52.704;6.398;2024-01-06T11:26:33;6.10;99.90
54898;DHT22;40800;52.704;6.398;2024-01-06T11:29:00;6.00;99.90
54898;DHT22;40800;52.704;6.398;2024-01-06T11:31:30;6.20;99.90
54898;DHT22;40800;52.704;6.398;2024-01-06T11:33:56;6.00;99.90
54898;DHT22;40800;52.704;6.398;2024-01-06T11:36:22;6.30;99.90
54898;DHT22;40800;52.704;6.398;2024-01-06T11:38:48;6.20;99.90
54898;DHT22;40800;52.704;6.398;2024-01-06T11:41:46;6.10;99.90
54898;DHT22;40800;52.704;6.398;2024-01-06T11:44:12;6.10;99.90
54898;DHT22;40800;52.704;6.398;2024-01-06T11:46:39;6.20;99.90
54898;DHT22;40800;52.704;6.398;2024-01-06T11:49:07;6.10;99.90
54898;DHT22;40800;52.704;6.398;2024-01-06T11:51:34;6.10;99.90
54898;DHT22;40800;52.704;6.398;2024-01-06T11:53:59;6.20;99.90
54898;DHT22;40800;52.704;6.398;2024-01-06T11:56:25;6.20;99.90
54898;DHT22;40800;52.704;6.398;2024-01-06T11:58:50;6.10;99.90
54898;DHT22;40800;52.704;6.398;2024-01-06T12:01:16;6.20;99.90
54898;DHT22;40800;52.704;6.398;2024-01-06T12:03:41;6.20;99.90
54898;DHT22;40800;52.704;6.398;2024-01-06T12:06:07;6.10;99.90
54898;DHT22;40800;52.704;6.398;2024-01-06T12:08:33;6.20;99.90
54898;DHT22;40800;52.704;6.398;2024-01-06T12:11:02;6.10;99.90
54898;DHT22;40800;52.704;6.398;2024-01-06T12:13:28;6.20;99.90
54898;DHT22;40800;52.704;6.398;2024-01-06T12:15:54;6.10;99.90
54898;DHT22;40800;52.704;6.398;2024-01-06T12:18:20;6.20;99.90
54898;DHT22;40800;52.704;6.398;2024-01-06T12:20:46;6.20;99.90
54898;DHT22;40800;52.704;6.398;2024-01-06T12:23:11;6.20;99.90
54898;DHT22;40800;52.704;6.398;2024-01-06T12:25:37;6.10;99.90
54898;DHT22;40800;52.704;6.398;2024-01-06T12:28:05;6.20;99.90
54898;DHT22;40800;52.704;6.398;2024-01-06T12:30:33;6.10;99.90
54898;DHT22;40800;52.704;6.398;2024-01-06T12:32:59;6.10;99.90
54898;DHT22;40800;52.704;6.398;2024-01-06T12:35:26;6.20;99.90
54898;DHT22;40800;52.704;6.398;2024-01-06T12:37:52;6.10;99.90
54898;DHT22;40800;52.704;6.398;2024-01-06T12:40:17;6.00;99.90
54898;DHT22;40800;52.704;6.398;2024-01-06T12:42:45;6.10;99.90
54898;DHT22;40800;52.704;6.398;2024-01-06T12:45:10;6.10;99.90
54898;DHT22;40800;52.704;6.398;2024-01-06T12:47:36;6.10;99.90
54898;DHT22;40800;52.704;6.398;2024-01-06T12:50:02;6.20;99.90
54898;DHT22;40800;52.704;6.398;2024-01-06T12:52:29;6.20;99.90
54898;DHT22;40800;52.704;6.398;2024-01-06T12:54:55;6.20;99.90
54898;DHT22;40800;52.704;6.398;2024-01-06T12:57:20;6.00;99.90
54898;DHT22;40800;52.704;6.398;2024-01-06T12:59:46;6.10;99.90
54898;DHT22;40800;52.704;6.398;2024-01-06T13:02:11;6.20;99.90
54898;DHT22;40800;52.704;6.398;2024-01-06T13:04:37;6.20;99.90
54898;DHT22;40800;52.704;6.398;2024-01-06T13:07:03;6.10;99.90
54898;DHT22;40800;52.704;6.398;2024-01-06T13:09:28;6.20;99.90
54898;DHT22;40800;52.704;6.398;2024-01-06T13:11:54;6.10;99.90
54898;DHT22;40800;52.704;6.398;2024-01-06T13:14:26;6.10;99.90
54898;DHT22;40800;52.704;6.398;2024-01-06T13:16:51;6.20;99.90
54898;DHT22;40800;52.704;6.398;2024-01-06T13:19:18;6.20;99.90
54898;DHT22;40800;52.704;6.398;2024-01-06T13:21:44;6.10;99.90
54898;DHT22;40800;52.704;6.398;2024-01-06T13:24:09;6.00;99.90
54898;DHT22;40800;52.704;6.398;2024-01-06T13:26:35;6.00;99.90
54898;DHT22;40800;52.704;6.398;2024-01-06T13:29:01;6.10;99.90
54898;DHT22;40800;52.704;6.398;2024-01-06T13:31:27;6.10;99.90
54898;DHT22;40800;52.704;6.398;2024-01-06T13:33:54;6.10;99.90
54898;DHT22;40800;52.704;6.398;2024-01-06T13:36:21;6.00;99.90
54898;DHT22;40800;52.704;6.398;2024-01-06T13:38:46;6.00;99.90
54898;DHT22;40800;52.704;6.398;2024-01-06T13:41:14;5.90;99.90
54898;DHT22;40800;52.704;6.398;2024-01-06T13:43:39;6.00;99.90
54898;DHT22;40800;52.704;6.398;2024-01-06T13:46:05;5.90;99.90
54898;DHT22;40800;52.704;6.398;2024-01-06T13:48:30;6.00;99.90
54898;DHT22;40800;52.704;6.398;2024-01-06T13:50:57;5.90;99.90
54898;DHT22;40800;52.704;6.398;2024-01-06T13:53:24;6.00;99.90
54898;DHT22;40800;52.704;6.398;2024-01-06T13:55:49;5.90;99.90
54898;DHT22;40800;52.704;6.398;2024-01-06T13:58:15;5.90;99.90
54898;DHT22;40800;52.704;6.398;2024-01-06T14:00:45;5.80;99.90
54898;DHT22;40800;52.704;6.398;2024-01-06T14:03:10;5.80;99.90
54898;DHT22;40800;52.704;6.398;2024-01-06T14:05:36;5.80;99.90
54898;DHT22;40800;52.704;6.398;2024-01-06T14:08:03;5.80;99.90
54898;DHT22;40800;52.704;6.398;2024-01-06T14:10:28;5.70;99.90
54898;DHT22;40800;52.704;6.398;2024-01-06T14:12:56;5.80;99.90
54898;DHT22;40800;52.704;6.398;2024-01-06T14:15:21;5.70;99.90
54898;DHT22;40800;52.704;6.398;2024-01-06T14:17:47;5.70;99.90
54898;DHT22;40800;52.704;6.398;2024-01-06T14:20:17;5.60;99.90
54898;DHT22;40800;52.704;6.398;2024-01-06T14:22:46;5.60;99.90
54898;DHT22;40800;52.704;6.398;2024-01-06T14:25:12;5.70;99.90
54898;DHT22;40800;52.704;6.398;2024-01-06T14:27:38;5.70;99.90
54898;DHT22;40800;52.704;6.398;2024-01-06T14:30:04;5.70;99.90
54898;DHT22;40800;52.704;6.398;2024-01-06T14:32:32;5.70;99.90
54898;DHT22;40800;52.704;6.398;2024-01-06T14:34:58;5.70;99.90
54898;DHT22;40800;52.704;6.398;2024-01-06T14:37:24;5.70;99.90
54898;DHT22;40800;52.704;6.398;2024-01-06T14:39:49;5.70;99.90
54898;DHT22;40800;52.704;6.398;2024-01-06T14:42:15;5.70;99.90
54898;DHT22;40800;52.704;6.398;2024-01-06T14:44:41;5.70;99.90
54898;DHT22;40800;52.704;6.398;2024-01-06T14:47:07;5.70;99.90
54898;DHT22;40800;52.704;6.398;2024-01-06T14:49:33;5.70;99.90
54898;DHT22;40800;52.704;6.398;2024-01-06T14:51:59;5.70;99.90
54898;DHT22;40800;52.704;6.398;2024-01-06T14:54:27;5.80;99.90
54898;DHT22;40800;52.704;6.398;2024-01-06T14:56:57;5.70;99.90
54898;DHT22;40800;52.704;6.398;2024-01-06T14:59:23;5.70;99.90
54898;DHT22;40800;52.704;6.398;2024-01-06T15:01:49;5.60;99.90
54898;DHT22;40800;52.704;6.398;2024-01-06T15:04:14;5.70;99.90
54898;DHT22;40800;52.704;6.398;2024-01-06T15:06:40;5.70;99.90
54898;DHT22;40800;52.704;6.398;2024-01-06T15:09:06;5.70;99.90
54898;DHT22;40800;52.704;6.398;2024-01-06T15:11:31;5.60;99.90
54898;DHT22;40800;52.704;6.398;2024-01-06T15:13:57;5.70;99.90
54898;DHT22;40800;52.704;6.398;2024-01-06T15:16:23;5.70;99.90
54898;DHT22;40800;52.704;6.398;2024-01-06T15:18:48;5.70;99.90
54898;DHT22;40800;52.704;6.398;2024-01-06T15:21:15;5.70;99.90
54898;DHT22;40800;52.704;6.398;2024-01-06T15:23:45;5.70;99.90
54898;DHT22;40800;52.704;6.398;2024-01-06T15:26:11;5.70;99.90
54898;DHT22;40800;52.704;6.398;2024-01-06T15:28:36;5.70;99.90
54898;DHT22;40800;52.704;6.398;2024-01-06T15:31:02;5.70;99.90
54898;DHT22;40800;52.704;6.398;2024-01-06T15:33:28;5.70;99.90
54898;DHT22;40800;52.704;6.398;2024-01-06T15:35:53;5.60;99.90
54898;DHT22;40800;52.704;6.398;2024-01-06T15:38:19;5.70;99.90
54898;DHT22;40800;52.704;6.398;2024-01-06T15:40:44;5.60;99.90
54898;DHT22;40800;52.704;6.398;2024-01-06T15:43:10;5.70;99.90